Time;durP1;ratioP1;P1;durP2;ratioP2;P2;SDS_P1;SDS_P2;PMS_P1;PMS_P2;Temp;Humidity;BMP_temperature;BMP_pressure;BME280_temperature;BME280_humidity;BME280_pressure;Samples;Min_cycle;Max_cycle;Signal;HPM_P1;HPM_P2
2023/01/31 00:01:39;;;;;;;5.70;3.30;;;23.50;50.60;;;;;;222202;1263;22530;-51
2023/01/31 00:06:50;;;;;;;7.50;3.10;;;23.60;50.80;;;;;;222306;1257;22552;-53
2023/01/31 00:11:55;;;;;;;8.40;3.00;;;23.70;50.20;;;;;;222245;1252;22720;-48
2023/01/31 00:16:59;;;;;;;6.80;3.50;;;23.60;50.40;;;;;;222190;1263;25348;-52
2023/01/31 00:22:04;;;;;;;11.40;3.30;;;23.50;50.70;;;;;;221999;1259;23904;-47
2023/01/31 00:27:09;;;;;;;5.80;2.70;;;23.30;51.30;;;;;;222353;1264;25418;-52
2023/01/31 00:32:13;;;;;;;5.00;2.50;;;23.10;51.60;;;;;;222274;1259;22521;-52
2023/01/31 00:37:18;;;;;;;5.90;2.90;;;23.00;51.70;;;;;;222384;1263;22540;-52
2023/01/31 00:42:22;;;;;;;6.10;3.00;;;23.00;51.90;;;;;;222167;1259;23810;-52
2023/01/31 00:47:26;;;;;;;8.80;3.20;;;23.00;51.90;;;;;;222281;1263;22728;-47
2023/01/31 00:52:31;;;;;;;7.10;3.00;;;22.90;52.10;;;;;;222006;1256;24200;-53
2023/01/31 00:57:35;;;;;;;9.40;3.10;;;22.80;52.00;;;;;;230007;1267;22096;-51
2023/01/31 01:02:39;;;;;;;6.40;2.80;;;22.80;52.00;;;;;;228556;1266;24238;-51
2023/01/31 01:07:44;;;;;;;6.90;3.10;;;22.80;51.80;;;;;;222069;1265;25499;-48
2023/01/31 01:12:48;;;;;;;5.20;3.00;;;22.70;52.10;;;;;;221801;1269;24254;-53
2023/01/31 01:17:54;;;;;;;4.80;2.70;;;22.60;52.30;;;;;;228404;1265;22603;-52
2023/01/31 01:22:58;;;;;;;6.10;2.60;;;22.60;52.20;;;;;;221977;1264;22756;-52
2023/01/31 01:28:02;;;;;;;7.30;2.90;;;22.60;52.30;;;;;;222214;1267;22524;-51
2023/01/31 01:33:07;;;;;;;8.00;2.80;;;22.40;52.50;;;;;;222151;1269;22574;-48
2023/01/31 01:38:13;;;;;;;6.00;3.50;;;22.30;52.80;;;;;;225571;1264;25426;-51
2023/01/31 01:43:17;;;;;;;6.50;3.10;;;22.20;52.80;;;;;;228278;1263;22516;-48
2023/01/31 01:48:21;;;;;;;3.20;2.50;;;22.20;52.50;;;;;;221963;1256;22530;-51
2023/01/31 01:53:27;;;;;;;4.30;2.20;;;22.10;52.50;;;;;;221961;1271;22809;-52
2023/01/31 01:58:38;;;;;;;5.10;2.30;;;22.00;53.00;;;;;;226397;1265;24087;-52
2023/01/31 02:03:44;;;;;;;4.90;2.30;;;22.00;52.90;;;;;;222014;1256;24033;-52
2023/01/31 02:08:48;;;;;;;4.10;2.10;;;21.90;53.00;;;;;;223303;1264;25184;-51
2023/01/31 02:14:02;;;;;;;4.30;2.50;;;21.90;53.40;;;;;;224164;1265;216255;-51
2023/01/31 02:19:48;;;;;;;4.60;2.60;;;22.10;53.00;;;;;;221782;1252;22524;-52
2023/01/31 02:25:04;;;;;;;5.10;2.10;;;22.40;52.60;;;;;;221871;1266;22948;-53
2023/01/31 02:30:43;;;;;;;2.80;1.90;;;22.70;51.90;;;;;;222060;1266;22524;-52
2023/01/31 02:36:25;;;;;;;4.20;2.30;;;22.90;51.20;;;;;;222004;1257;23929;-52
2023/01/31 02:41:47;;;;;;;4.30;2.20;;;23.00;50.80;;;;;;222187;1267;23370;-50
2023/01/31 02:47:18;;;;;;;3.50;2.00;;;23.10;50.70;;;;;;221877;1263;24622;-53
2023/01/31 02:52:42;;;;;;;3.50;2.00;;;23.20;50.60;;;;;;222142;1257;25958;-51
2023/01/31 02:57:50;;;;;;;2.70;1.80;;;23.30;50.50;;;;;;221861;1267;22599;-51
2023/01/31 03:02:55;;;;;;;4.70;2.10;;;23.30;50.70;;;;;;221889;1263;24211;-53
2023/01/31 03:08:04;;;;;;;3.80;1.90;;;23.30;50.20;;;;;;229989;1263;22138;-52
2023/01/31 03:13:39;;;;;;;2.90;1.80;;;23.50;50.00;;;;;;224517;1261;24334;-52
2023/01/31 03:19:02;;;;;;;4.50;1.90;;;23.60;49.50;;;;;;221878;1259;25354;-50
2023/01/31 03:24:07;;;;;;;4.00;1.60;;;23.50;49.70;;;;;;221953;1270;22546;-51
2023/01/31 03:29:15;;;;;;;3.00;1.80;;;23.60;49.80;;;;;;221987;1259;25487;-53
2023/01/31 03:34:21;;;;;;;2.90;1.80;;;23.50;49.80;;;;;;222058;1271;23871;-54
2023/01/31 03:39:30;;;;;;;3.00;1.90;;;23.60;49.50;;;;;;221873;1256;25266;-50
2023/01/31 03:44:46;;;;;;;3.80;2.10;;;23.60;49.70;;;;;;222096;1269;22532;-53
2023/01/31 03:49:53;;;;;;;3.80;1.90;;;23.60;49.50;;;;;;221987;1258;25497;-55
2023/01/31 03:55:15;;;;;;;2.20;1.60;;;23.70;49.40;;;;;;222108;1270;22526;-52
2023/01/31 04:00:23;;;;;;;2.60;1.80;;;23.70;49.80;;;;;;222000;1268;22527;-52
2023/01/31 04:05:31;;;;;;;4.50;2.40;;;23.70;49.60;;;;;;222031;1267;22755;-52
2023/01/31 04:10:36;;;;;;;3.80;2.00;;;23.80;49.40;;;;;;221964;1269;24206;-51
2023/01/31 04:15:40;;;;;;;2.30;1.70;;;23.80;49.10;;;;;;222152;1269;25403;-52
2023/01/31 04:20:44;;;;;;;2.70;2.10;;;23.80;49.30;;;;;;222110;1256;22526;-54
2023/01/31 04:25:49;;;;;;;1.80;1.30;;;23.80;49.10;;;;;;222137;1270;25555;-50
2023/01/31 04:30:54;;;;;;;2.50;1.60;;;23.80;49.10;;;;;;222114;1265;22528;-51
2023/01/31 04:35:59;;;;;;;2.00;1.20;;;23.90;49.10;;;;;;222167;1271;22546;-52
2023/01/31 04:41:03;;;;;;;2.30;1.50;;;23.90;49.00;;;;;;221967;1269;22564;-50
2023/01/31 04:46:08;;;;;;;2.00;1.50;;;23.80;49.30;;;;;;222061;1259;22531;-51
2023/01/31 04:51:12;;;;;;;1.90;1.20;;;23.60;49.90;;;;;;221865;1269;25422;-50
2023/01/31 04:56:17;;;;;;;2.00;1.40;;;23.50;50.00;;;;;;221987;1271;23950;-51
2023/01/31 05:01:21;;;;;;;2.70;1.50;;;23.40;49.80;;;;;;230028;1260;22422;-52
2023/01/31 05:06:25;;;;;;;2.40;1.50;;;23.40;49.90;;;;;;223739;1269;22633;-53
2023/01/31 05:11:29;;;;;;;2.80;1.40;;;23.30;50.10;;;;;;222995;1265;25335;-51
2023/01/31 05:16:33;;;;;;;2.20;1.50;;;23.00;50.70;;;;;;221889;1268;22624;-52
2023/01/31 05:21:53;;;;;;;1.20;1.10;;;22.90;51.20;;;;;;221792;1269;24228;-50
2023/01/31 05:27:00;;;;;;;2.50;1.70;;;22.70;51.30;;;;;;221917;1257;22733;-51
2023/01/31 05:32:05;;;;;;;3.50;1.50;;;22.70;51.60;;;;;;221985;1263;25436;-52
2023/01/31 05:37:09;;;;;;;3.40;1.70;;;22.60;51.80;;;;;;222077;1256;24302;-58
2023/01/31 05:42:14;;;;;;;2.70;1.30;;;22.50;51.80;;;;;;222103;1259;24284;-59
2023/01/31 05:47:18;;;;;;;2.10;1.50;;;22.40;52.00;;;;;;222129;1264;22579;-59
2023/01/31 05:52:22;;;;;;;1.90;1.30;;;22.40;52.80;;;;;;222067;1264;22521;-58
2023/01/31 05:57:27;;;;;;;2.60;1.70;;;22.40;52.40;;;;;;222083;1256;22538;-58
2023/01/31 06:02:32;;;;;;;2.40;1.30;;;22.30;52.10;;;;;;221816;1264;25583;-57
2023/01/31 06:07:37;;;;;;;2.50;1.60;;;22.20;52.40;;;;;;222048;1266;25887;-57
2023/01/31 06:12:41;;;;;;;1.40;1.20;;;22.10;52.30;;;;;;222001;1250;22535;-56
2023/01/31 06:17:46;;;;;;;3.40;1.30;;;22.10;53.00;;;;;;221945;1270;24245;-56
2023/01/31 06:22:50;;;;;;;2.70;1.30;;;22.00;52.40;;;;;;221900;1263;23869;-58
2023/01/31 06:27:55;;;;;;;2.00;1.10;;;22.00;52.60;;;;;;230023;1269;22132;-56
2023/01/31 06:33:00;;;;;;;4.00;1.30;;;22.00;52.40;;;;;;225623;1268;22557;-57
2023/01/31 06:38:04;;;;;;;1.80;1.20;;;22.00;52.10;;;;;;222154;1270;24276;-57
2023/01/31 06:43:09;;;;;;;1.50;1.10;;;22.20;52.00;;;;;;221903;1247;22679;-58
2023/01/31 06:48:13;;;;;;;4.60;1.70;;;22.50;51.80;;;;;;221979;1262;22524;-58
2023/01/31 06:53:17;;;;;;;2.20;1.60;;;22.80;51.80;;;;;;222145;1269;25595;-54
2023/01/31 06:58:21;;;;;;;3.20;1.10;;;23.00;50.50;;;;;;221859;1247;22535;-51
2023/01/31 07:03:25;;;;;;;1.70;1.60;;;23.10;50.50;;;;;;222061;1268;22737;-55
2023/01/31 07:08:30;;;;;;;4.80;1.30;;;23.20;50.70;;;;;;222056;1268;22532;-54
2023/01/31 07:13:38;;;;;;;1.70;1.00;;;23.20;50.90;;;;;;222087;1270;22759;-50
2023/01/31 07:18:43;;;;;;;3.20;1.10;;;23.20;50.70;;;;;;221992;1266;22764;-53
2023/01/31 07:23:49;;;;;;;5.30;1.40;;;23.20;50.50;;;;;;222039;1269;25456;-53
2023/01/31 07:28:53;;;;;;;2.60;1.20;;;23.30;50.90;;;;;;222006;1257;22534;-53
2023/01/31 07:33:58;;;;;;;4.70;1.20;;;23.40;50.70;;;;;;222265;1263;25337;-53
2023/01/31 07:39:02;;;;;;;2.90;1.20;;;23.40;50.90;;;;;;221920;1271;22519;-52
2023/01/31 07:44:11;;;;;;;3.90;1.50;;;23.50;50.70;;;;;;222406;1269;22654;-55
2023/01/31 07:49:15;;;;;;;8.20;1.30;;;23.50;50.80;;;;;;222348;1260;22528;-55
2023/01/31 07:54:19;;;;;;;2.80;1.40;;;23.60;50.10;;;;;;221796;1266;23010;-53
2023/01/31 07:59:23;;;;;;;6.50;1.20;;;23.50;50.10;;;;;;222222;1267;23235;-55
2023/01/31 08:04:27;;;;;;;7.00;1.60;;;23.40;50.10;;;;;;222114;1263;22546;-51
2023/01/31 08:09:32;;;;;;;3.90;1.40;;;23.50;49.80;;;;;;221991;1263;22539;-53
2023/01/31 08:14:36;;;;;;;5.60;1.50;;;23.40;49.80;;;;;;222568;1270;25451;-54
2023/01/31 08:19:41;;;;;;;5.90;1.60;;;23.50;48.50;;;;;;221898;1266;22534;-52
2023/01/31 08:24:45;;;;;;;5.60;1.40;;;23.50;48.70;;;;;;222478;1263;22527;-53
2023/01/31 08:29:49;;;;;;;6.80;1.50;;;23.50;48.00;;;;;;222013;1257;24244;-51
2023/01/31 08:34:53;;;;;;;4.00;1.40;;;23.60;47.80;;;;;;221848;1271;22576;-52
2023/01/31 08:39:57;;;;;;;5.70;1.50;;;23.60;47.30;;;;;;222576;1268;23908;-55
2023/01/31 08:45:02;;;;;;;6.20;1.60;;;23.60;47.00;;;;;;222074;1269;25194;-52
2023/01/31 08:50:07;;;;;;;3.30;1.70;;;23.70;47.00;;;;;;222622;1263;22525;-57
2023/01/31 08:55:31;;;;;;;1.70;1.40;;;23.70;46.80;;;;;;221733;1259;22539;-51
2023/01/31 09:00:35;;;;;;;6.70;1.60;;;23.70;46.70;;;;;;221861;1269;22530;-50
2023/01/31 09:05:39;;;;;;;4.80;1.30;;;23.80;47.00;;;;;;221641;1264;26491;-53
2023/01/31 09:11:04;;;;;;;3.20;1.30;;;23.70;47.20;;;;;;221603;1269;22537;-52
2023/01/31 09:16:10;;;;;;;4.60;1.30;;;23.80;47.40;;;;;;221798;1259;22556;-54
2023/01/31 09:21:17;;;;;;;4.20;1.90;;;23.80;47.00;;;;;;221640;1249;24216;-51
2023/01/31 09:26:21;;;;;;;3.00;1.10;;;23.90;47.20;;;;;;221748;1266;25890;-49
2023/01/31 09:31:28;;;;;;;2.20;1.30;;;23.90;47.10;;;;;;221882;1258;25486;-50
2023/01/31 09:36:37;;;;;;;2.30;2.00;;;23.80;47.20;;;;;;221886;1264;22801;-53
2023/01/31 09:41:46;;;;;;;3.30;1.30;;;23.80;48.00;;;;;;221785;1265;22680;-50
2023/01/31 09:47:11;;;;;;;3.40;1.50;;;23.70;47.70;;;;;;222009;1264;22534;-50
2023/01/31 09:52:16;;;;;;;2.20;1.10;;;23.60;47.40;;;;;;221962;1257;25184;-51
2023/01/31 09:57:35;;;;;;;1.70;1.00;;;23.40;48.60;;;;;;221964;1264;22543;-54
2023/01/31 10:03:09;;;;;;;1.60;1.50;;;23.30;48.50;;;;;;221809;1266;23912;-52
2023/01/31 10:08:21;;;;;;;2.60;1.60;;;23.20;48.50;;;;;;221855;1269;25501;-52
2023/01/31 10:13:30;;;;;;;;;;;23.10;48.80;;;;;;221722;1270;25275;-50
2023/01/31 10:18:39;;;;;;;1.80;1.30;;;22.90;49.50;;;;;;221798;1264;26541;-52
2023/01/31 10:23:51;;;;;;;3.80;1.60;;;22.80;49.60;;;;;;221824;1270;22554;-52
2023/01/31 10:29:05;;;;;;;2.60;1.10;;;22.70;50.20;;;;;;221940;1264;25335;-52
2023/01/31 10:34:33;;;;;;;1.90;1.40;;;22.60;49.90;;;;;;222164;1263;22592;-53
2023/01/31 10:40:05;;;;;;;3.40;1.50;;;22.60;50.00;;;;;;221909;1271;22677;-50
2023/01/31 10:45:29;;;;;;;2.90;1.20;;;22.40;50.20;;;;;;221933;1268;22517;-51
2023/01/31 10:50:52;;;;;;;2.60;1.20;;;22.30;50.40;;;;;;221932;1266;22754;-52
2023/01/31 10:56:04;;;;;;;3.60;1.20;;;22.50;50.20;;;;;;221909;1251;22528;-52
2023/01/31 11:01:10;;;;;;;3.70;1.50;;;22.50;50.80;;;;;;221875;1263;24023;-50
2023/01/31 11:06:16;;;;;;;4.70;1.70;;;22.50;50.60;;;;;;222163;1264;22637;-52
2023/01/31 11:11:22;;;;;;;6.70;2.00;;;22.50;52.30;;;;;;222076;1270;25670;-52
2023/01/31 11:16:32;;;;;;;13.00;2.00;;;22.40;52.60;;;;;;221743;1267;25630;-53
2023/01/31 11:21:36;;;;;;;4.70;3.00;;;22.20;52.90;;;;;;221839;1267;22630;-51
2023/01/31 11:26:51;;;;;;;5.70;1.50;;;22.10;53.60;;;;;;222415;1264;22554;-51
2023/01/31 11:31:57;;;;;;;6.80;1.90;;;22.10;55.30;;;;;;223531;1264;24344;-52
2023/01/31 11:37:16;;;;;;;7.00;1.90;;;22.10;54.70;;;;;;222057;1267;22547;-50
2023/01/31 11:42:20;;;;;;;5.70;2.30;;;22.00;56.00;;;;;;221975;1257;24407;-52
2023/01/31 11:47:48;;;;;;;5.30;1.70;;;22.00;56.60;;;;;;221926;1267;22691;-47
2023/01/31 11:52:57;;;;;;;7.40;1.80;;;21.90;56.60;;;;;;221964;1267;22527;-50
2023/01/31 11:58:08;;;;;;;5.40;1.70;;;21.90;57.00;;;;;;222040;1263;22531;-49
2023/01/31 12:03:16;;;;;;;2.70;1.60;;;21.80;57.00;;;;;;221836;1271;22524;-54
2023/01/31 12:08:26;;;;;;;4.60;2.30;;;21.80;57.50;;;;;;222155;1268;24384;-52
2023/01/31 12:13:49;;;;;;;4.00;1.90;;;21.70;57.50;;;;;;222021;1267;22645;-51
2023/01/31 12:19:12;;;;;;;5.50;1.80;;;21.60;58.00;;;;;;221971;1259;23582;-53
2023/01/31 12:24:59;;;;;;;3.00;1.70;;;21.60;57.60;;;;;;222020;1264;22746;-52
2023/01/31 12:30:26;;;;;;;5.00;1.70;;;21.90;57.30;;;;;;221077;1273;22702;-52
2023/01/31 12:35:43;;;;;;;4.10;1.80;;;22.40;56.10;;;;;;221073;1256;24366;-52
2023/01/31 12:41:29;;;;;;;3.70;1.70;;;22.50;55.80;;;;;;221026;1273;25616;-53
2023/01/31 12:46:41;;;;;;;7.00;1.50;;;22.70;55.60;;;;;;220396;1270;24988;-51
2023/01/31 12:52:03;;;;;;;3.50;1.70;;;22.80;56.00;;;;;;220988;1270;22603;-53
2023/01/31 12:57:32;;;;;;;4.50;2.10;;;22.70;56.50;;;;;;220960;1267;22537;-54
2023/01/31 13:02:45;;;;;;;4.10;1.40;;;22.80;57.20;;;;;;220905;1273;24185;-55
2023/01/31 13:08:31;;;;;;;1.90;1.50;;;22.90;57.10;;;;;;221075;1267;22524;-55
2023/01/31 13:13:45;;;;;;;3.70;1.90;;;22.90;56.90;;;;;;220930;1267;25448;-53
2023/01/31 13:18:53;;;;;;;2.60;1.60;;;22.90;57.40;;;;;;221490;1270;24948;-53
2023/01/31 13:24:09;;;;;;;2.70;1.70;;;22.90;57.30;;;;;;222107;1264;26462;-54
2023/01/31 13:29:45;;;;;;;2.70;1.30;;;22.90;57.60;;;;;;222026;1264;22530;-52
2023/01/31 13:35:00;;;;;;;4.00;1.60;;;22.90;57.50;;;;;;221879;1263;22554;-52
2023/01/31 13:40:18;;;;;;;2.80;1.40;;;23.00;57.60;;;;;;222104;1263;22626;-53
2023/01/31 13:45:31;;;;;;;2.10;1.40;;;23.00;57.90;;;;;;222007;1270;25517;-53
2023/01/31 13:50:59;;;;;;;2.00;1.60;;;23.00;57.60;;;;;;222234;1264;24286;-55
2023/01/31 13:56:11;;;;;;;3.50;1.70;;;23.00;57.40;;;;;;222164;1264;22657;-54
2023/01/31 14:01:25;;;;;;;1.90;1.50;;;23.00;58.20;;;;;;221969;1270;22525;-53
2023/01/31 14:07:05;;;;;;;2.50;1.70;;;23.10;57.70;;;;;;221974;1269;24102;-54
2023/01/31 14:12:10;;;;;;;2.00;1.20;;;23.10;58.00;;;;;;220876;1272;233798;-53
2023/01/31 14:17:20;;;;;;;3.20;1.70;;;23.10;58.00;;;;;;220869;1257;23260;-54
2023/01/31 14:22:40;;;;;;;2.80;1.90;;;23.10;58.00;;;;;;221050;1271;23682;-55
2023/01/31 14:28:00;;;;;;;4.30;1.60;;;23.20;58.20;;;;;;221061;1276;22997;-53
2023/01/31 14:33:09;;;;;;;1.40;1.30;;;23.20;58.10;;;;;;220749;1267;25457;-53
2023/01/31 14:38:51;;;;;;;1.40;1.30;;;23.20;58.00;;;;;;220981;1264;24248;-53
2023/01/31 14:44:05;;;;;;;2.10;1.60;;;23.20;57.80;;;;;;221243;1254;24222;-53
2023/01/31 14:49:54;;;;;;;1.70;1.60;;;23.30;58.00;;;;;;222137;1270;24176;-53
2023/01/31 14:55:21;;;;;;;1.50;1.40;;;23.30;57.70;;;;;;222057;1266;23296;-54
2023/01/31 15:00:32;;;;;;;2.80;1.70;;;23.40;57.80;;;;;;222025;1263;22524;-55
2023/01/31 15:05:41;;;;;;;2.10;1.50;;;23.40;57.50;;;;;;222109;1259;24301;-52
2023/01/31 15:10:57;;;;;;;2.10;1.60;;;23.40;57.50;;;;;;222096;1264;24176;-49
2023/01/31 15:16:05;;;;;;;4.70;1.70;;;23.50;57.70;;;;;;222114;1267;22538;-50
2023/01/31 15:21:10;;;;;;;1.70;1.30;;;23.50;57.70;;;;;;222388;1264;22751;-51
2023/01/31 15:26:16;;;;;;;1.90;1.60;;;23.50;58.00;;;;;;222112;1259;24385;-52
2023/01/31 15:31:48;;;;;;;2.40;1.60;;;23.40;57.80;;;;;;221976;1267;24238;-49
2023/01/31 15:37:24;;;;;;;2.50;1.90;;;23.40;58.10;;;;;;222067;1262;22712;-53
2023/01/31 15:42:30;;;;;;;1.90;1.70;;;23.20;59.00;;;;;;222342;1256;22568;-53
2023/01/31 15:47:37;;;;;;;2.30;2.00;;;23.10;58.60;;;;;;221683;1262;25258;-51
2023/01/31 15:52:47;;;;;;;;;;;23.10;58.20;;;;;;221859;1251;24254;-52
2023/01/31 15:58:01;;;;;;;4.30;1.60;;;23.00;58.00;;;;;;221950;1256;25352;-52
2023/01/31 16:03:21;;;;;;;4.90;2.50;;;23.00;58.30;;;;;;221924;1256;23883;-52
2023/01/31 16:08:56;;;;;;;7.70;1.90;;;23.00;58.30;;;;;;221826;1259;22519;-56
2023/01/31 16:14:10;;;;;;;4.30;2.00;;;22.70;59.10;;;;;;221835;1263;22529;-53
2023/01/31 16:19:25;;;;;;;5.70;2.20;;;22.50;59.60;;;;;;221884;1256;22547;-53
2023/01/31 16:24:31;;;;;;;3.80;2.10;;;22.50;59.40;;;;;;221642;1267;24209;-49
2023/01/31 16:29:41;;;;;;;5.60;2.10;;;22.40;59.50;;;;;;221756;1256;25327;-52
2023/01/31 16:34:59;;;;;;;4.90;2.30;;;22.40;59.30;;;;;;221681;1259;23438;-53
2023/01/31 16:40:28;;;;;;;4.40;2.40;;;22.30;59.30;;;;;;221904;1256;22540;-51
2023/01/31 16:45:36;;;;;;;4.70;2.10;;;22.40;58.80;;;;;;221881;1254;24238;-52
2023/01/31 16:50:42;;;;;;;4.90;2.40;;;22.30;58.90;;;;;;223017;1255;24247;-53
2023/01/31 16:56:13;;;;;;;6.10;2.80;;;22.20;59.10;;;;;;221977;1260;22556;-54
2023/01/31 17:01:24;;;;;;;5.50;3.00;;;22.30;60.40;;;;;;222552;1263;24363;-55
2023/01/31 17:06:32;;;;;;;5.00;2.80;;;22.30;59.70;;;;;;222006;1266;25379;-53
2023/01/31 17:11:38;;;;;;;5.40;2.70;;;22.20;60.10;;;;;;221754;1254;22533;-54
2023/01/31 17:16:51;;;;;;;5.40;2.90;;;22.20;61.30;;;;;;221884;1257;22537;-54
2023/01/31 17:21:58;;;;;;;3.90;2.70;;;22.00;61.30;;;;;;221704;1258;22932;-52
2023/01/31 17:27:24;;;;;;;5.90;2.80;;;22.00;61.40;;;;;;229853;1264;22325;-56
2023/01/31 17:32:34;;;;;;;5.30;2.60;;;22.30;60.00;;;;;;229475;1267;22339;-50
2023/01/31 17:37:42;;;;;;;5.40;2.80;;;22.30;59.80;;;;;;227342;1256;22528;-55
2023/01/31 17:42:51;;;;;;;10.40;3.00;;;22.10;60.00;;;;;;229698;1262;22298;-59
2023/01/31 17:48:03;;;;;;;5.50;2.80;;;22.00;60.00;;;;;;229768;1259;22162;-57
2023/01/31 17:53:41;;;;;;;4.80;2.90;;;22.10;59.90;;;;;;227558;1256;22547;-59
2023/01/31 17:58:59;;;;;;;4.60;2.60;;;22.00;59.30;;;;;;223589;1266;22553;-59
2023/01/31 18:04:05;;;;;;;5.60;2.40;;;22.00;59.70;;;;;;221748;1248;26253;-62
2023/01/31 18:09:14;;;;;;;5.00;2.30;;;21.80;59.90;;;;;;221913;1258;25668;-53
2023/01/31 18:14:21;;;;;;;3.70;2.50;;;21.80;61.10;;;;;;222064;1250;24350;-62
2023/01/31 18:19:29;;;;;;;4.50;2.30;;;22.00;59.80;;;;;;221737;1262;22523;-56
2023/01/31 18:24:40;;;;;;;3.70;2.30;;;22.10;60.40;;;;;;221929;1266;23110;-59
2023/01/31 18:29:49;;;;;;;8.30;2.60;;;22.30;60.20;;;;;;221901;1264;22650;-57
2023/01/31 18:34:58;;;;;;;4.60;2.70;;;22.40;60.10;;;;;;221905;1264;22891;-55
2023/01/31 18:40:05;;;;;;;3.60;2.30;;;22.40;59.90;;;;;;221806;1271;22537;-58
2023/01/31 18:45:12;;;;;;;6.30;2.30;;;22.50;60.30;;;;;;221753;1266;24289;-59
2023/01/31 18:50:18;;;;;;;2.60;2.30;;;22.60;59.40;;;;;;224246;1268;25486;-61
2023/01/31 18:55:24;;;;;;;4.70;1.90;;;22.70;58.80;;;;;;221586;1268;22534;-57
2023/01/31 19:00:31;;;;;;;9.20;2.30;;;22.70;58.80;;;;;;223353;1263;24187;-55
2023/01/31 19:05:37;;;;;;;4.90;2.20;;;22.90;58.60;;;;;;222176;1253;27675;-58
2023/01/31 19:10:43;;;;;;;4.70;1.90;;;22.80;58.20;;;;;;224070;1256;24289;-55
2023/01/31 19:15:50;;;;;;;3.80;2.00;;;22.80;58.80;;;;;;222211;1257;24250;-57
2023/01/31 19:20:56;;;;;;;3.60;2.20;;;22.80;59.20;;;;;;222142;1256;22551;-57
2023/01/31 19:26:04;;;;;;;6.60;2.20;;;22.80;59.90;;;;;;221989;1257;22984;-58
2023/01/31 19:31:14;;;;;;;2.20;1.80;;;22.70;59.90;;;;;;222114;1262;26511;-57
2023/01/31 19:36:23;;;;;;;3.70;1.80;;;22.60;59.80;;;;;;221849;1249;24015;-54
2023/01/31 19:41:32;;;;;;;6.60;2.20;;;22.60;60.10;;;;;;221619;1262;22575;-51
2023/01/31 19:46:38;;;;;;;7.60;2.40;;;22.60;60.30;;;;;;221900;1264;24213;-52
2023/01/31 19:51:53;;;;;;;7.80;2.60;;;22.60;60.30;;;;;;221999;1266;22783;-53
2023/01/31 19:57:04;;;;;;;8.20;2.10;;;22.50;60.50;;;;;;222094;1263;22619;-54
2023/01/31 20:02:15;;;;;;;6.10;2.80;;;22.60;61.70;;;;;;221825;1265;22640;-51
2023/01/31 20:07:25;;;;;;;2.60;2.00;;;22.50;60.50;;;;;;221850;1267;25419;-51
2023/01/31 20:12:32;;;;;;;8.30;2.40;;;22.40;60.60;;;;;;222152;1265;24837;-53
2023/01/31 20:17:41;;;;;;;5.30;2.60;;;22.40;60.40;;;;;;222346;1259;22779;-57
2023/01/31 20:23:02;;;;;;;3.50;1.80;;;22.40;61.60;;;;;;222303;1263;22579;-54
2023/01/31 20:28:11;;;;;;;8.20;2.40;;;22.30;61.10;;;;;;222293;1263;22765;-51
2023/01/31 20:33:17;;;;;;;2.80;1.80;;;22.30;61.10;;;;;;222387;1256;25882;-53
2023/01/31 20:38:27;;;;;;;2.80;1.80;;;22.20;60.60;;;;;;222439;1265;25902;-52
2023/01/31 20:43:43;;;;;;;4.20;1.80;;;22.20;60.70;;;;;;222540;1259;26522;-54
2023/01/31 20:48:57;;;;;;;6.40;2.10;;;22.20;60.30;;;;;;222364;1256;22552;-54
2023/01/31 20:54:04;;;;;;;11.00;2.00;;;22.20;60.50;;;;;;222408;1263;22625;-51
2023/01/31 20:59:14;;;;;;;5.80;1.90;;;22.10;59.80;;;;;;222522;1270;22542;-50
2023/01/31 21:04:26;;;;;;;7.80;2.10;;;22.00;59.50;;;;;;221810;1249;24285;-53
2023/01/31 21:09:34;;;;;;;2.80;2.00;;;22.00;59.30;;;;;;221969;1265;22520;-50
2023/01/31 21:14:41;;;;;;;2.50;1.60;;;21.90;59.40;;;;;;222136;1263;22608;-52
2023/01/31 21:19:46;;;;;;;6.10;1.70;;;22.00;59.20;;;;;;222123;1247;22821;-57
2023/01/31 21:24:52;;;;;;;4.30;1.70;;;21.90;58.80;;;;;;222134;1263;22677;-59
2023/01/31 21:29:59;;;;;;;6.40;1.80;;;21.80;58.40;;;;;;221882;1265;25714;-58
2023/01/31 21:35:07;;;;;;;4.60;1.80;;;21.60;58.50;;;;;;221961;1266;22527;-57
2023/01/31 21:40:12;;;;;;;3.90;1.70;;;21.50;58.70;;;;;;221974;1263;23997;-57
2023/01/31 21:45:16;;;;;;;4.10;2.10;;;21.50;58.90;;;;;;221873;1266;24205;-57
2023/01/31 21:50:21;;;;;;;3.90;1.70;;;21.50;58.90;;;;;;222048;1264;26634;-55
2023/01/31 21:55:25;;;;;;;3.50;1.60;;;21.40;59.00;;;;;;222072;1266;25448;-58
2023/01/31 22:00:31;;;;;;;1.80;1.60;;;21.40;59.40;;;;;;221991;1262;24034;-60
2023/01/31 22:05:35;;;;;;;1.90;1.70;;;21.60;58.90;;;;;;221948;1250;22532;-58
2023/01/31 22:10:39;;;;;;;3.60;1.60;;;21.90;59.00;;;;;;221988;1265;24235;-58
2023/01/31 22:15:42;;;;;;;4.60;1.80;;;22.10;58.30;;;;;;222012;1267;22646;-57
2023/01/31 22:20:47;;;;;;;7.30;2.10;;;22.20;60.90;;;;;;221829;1266;22649;-58
2023/01/31 22:25:52;;;;;;;5.70;2.20;;;22.20;60.90;;;;;;221639;1269;24067;-57
2023/01/31 22:31:00;;;;;;;7.00;1.70;;;22.00;62.00;;;;;;221899;1266;23000;-58
2023/01/31 22:36:07;;;;;;;5.30;1.70;;;22.00;63.40;;;;;;221839;1256;23912;-58
2023/01/31 22:41:13;;;;;;;1.60;1.50;;;22.00;61.80;;;;;;223915;1259;22650;-58
2023/01/31 22:46:24;;;;;;;3.80;1.80;;;22.20;61.60;;;;;;221698;1261;25189;-58
2023/01/31 22:51:32;;;;;;;4.90;1.60;;;22.20;60.80;;;;;;222039;1263;22541;-58
2023/01/31 22:56:38;;;;;;;3.70;1.60;;;22.30;61.20;;;;;;221978;1263;22539;-59
2023/01/31 23:01:44;;;;;;;4.40;1.60;;;22.20;60.50;;;;;;222051;1247;24525;-57
2023/01/31 23:06:55;;;;;;;6.80;1.60;;;22.20;60.80;;;;;;221996;1263;22734;-58
2023/01/31 23:12:05;;;;;;;5.90;1.50;;;22.20;61.20;;;;;;222010;1266;24206;-56
2023/01/31 23:22:44;;;;;;;2.40;1.40;;;22.20;60.50;;;;;;222115;1264;22697;-59
2023/01/31 23:27:54;;;;;;;3.90;1.40;;;22.30;60.40;;;;;;221909;1271;22626;-55
2023/01/31 23:32:58;;;;;;;1.40;1.30;;;22.30;60.20;;;;;;221930;1258;24118;-59
2023/01/31 23:38:02;;;;;;;3.60;1.50;;;22.30;60.20;;;;;;221926;1259;24206;-55
2023/01/31 23:43:06;;;;;;;11.70;2.50;;;22.30;60.30;;;;;;222007;1259;23120;-57
2023/01/31 23:48:10;;;;;;;4.40;1.60;;;22.20;61.20;;;;;;222041;1262;27640;-56
2023/01/31 23:53:15;;;;;;;7.20;2.00;;;22.20;62.90;;;;;;222127;1267;22643;-56
2023/01/31 23:58:20;;;;;;;8.50;1.80;;;22.10;62.80;;;;;;222144;1266;22523;-59
